sensor_id;sensor_type;location;lat;lon;timestamp;P1;durP1;ratioP1;P2;durP2;ratioP2
9807;SDS011;4943;52.550;13.462;2022-09-09T00:00:44;6.57;;;5.40;;
9807;SDS011;4943;52.550;13.462;2022-09-09T00:03:17;6.38;;;5.25;;
9807;SDS011;4943;52.550;13.462;2022-09-09T00:05:49;8.27;;;5.65;;
9807;SDS011;4943;52.550;13.462;2022-09-09T00:08:29;8.80;;;5.57;;
9807;SDS011;4943;52.550;13.462;2022-09-09T00:11:07;6.32;;;5.30;;
9807;SDS011;4943;52.550;13.462;2022-09-09T00:13:41;6.38;;;5.32;;
9807;SDS011;4943;52.550;13.462;2022-09-09T00:16:17;7.22;;;5.43;;
9807;SDS011;4943;52.550;13.462;2022-09-09T00:18:52;7.20;;;5.68;;
9807;SDS011;4943;52.550;13.462;2022-09-09T00:21:26;6.78;;;5.47;;
9807;SDS011;4943;52.550;13.462;2022-09-09T00:24:00;8.35;;;4.68;;
9807;SDS011;4943;52.550;13.462;2022-09-09T00:26:38;8.63;;;5.00;;
9807;SDS011;4943;52.550;13.462;2022-09-09T00:29:10;5.88;;;5.22;;
9807;SDS011;4943;52.550;13.462;2022-09-09T00:31:47;6.10;;;5.38;;
9807;SDS011;4943;52.550;13.462;2022-09-09T00:34:16;7.07;;;5.20;;
9807;SDS011;4943;52.550;13.462;2022-09-09T00:36:47;6.70;;;5.07;;
9807;SDS011;4943;52.550;13.462;2022-09-09T00:39:19;7.88;;;4.97;;
9807;SDS011;4943;52.550;13.462;2022-09-09T00:41:56;6.47;;;5.22;;
9807;SDS011;4943;52.550;13.462;2022-09-09T00:44:37;5.95;;;4.45;;
9807;SDS011;4943;52.550;13.462;2022-09-09T00:47:15;11.50;;;5.40;;
9807;SDS011;4943;52.550;13.462;2022-09-09T00:49:56;6.90;;;5.05;;
9807;SDS011;4943;52.550;13.462;2022-09-09T00:52:32;7.35;;;5.35;;
9807;SDS011;4943;52.550;13.462;2022-09-09T00:55:08;6.90;;;5.72;;
9807;SDS011;4943;52.550;13.462;2022-09-09T00:57:45;6.60;;;5.28;;
9807;SDS011;4943;52.550;13.462;2022-09-09T01:00:18;7.28;;;5.70;;
9807;SDS011;4943;52.550;13.462;2022-09-09T01:02:55;5.63;;;4.80;;
9807;SDS011;4943;52.550;13.462;2022-09-09T01:05:42;10.23;;;5.60;;
9807;SDS011;4943;52.550;13.462;2022-09-09T01:08:18;7.05;;;5.50;;
9807;SDS011;4943;52.550;13.462;2022-09-09T01:10:56;8.10;;;5.97;;
9807;SDS011;4943;52.550;13.462;2022-09-09T01:13:27;6.43;;;4.97;;
9807;SDS011;4943;52.550;13.462;2022-09-09T01:15:57;7.53;;;5.80;;
9807;SDS011;4943;52.550;13.462;2022-09-09T01:18:31;8.43;;;5.65;;
9807;SDS011;4943;52.550;13.462;2022-09-09T01:21:04;7.22;;;6.10;;
9807;SDS011;4943;52.550;13.462;2022-09-09T01:23:45;6.00;;;5.30;;
9807;SDS011;4943;52.550;13.462;2022-09-09T01:26:33;6.80;;;5.55;;
9807;SDS011;4943;52.550;13.462;2022-09-09T01:29:03;5.97;;;5.22;;
9807;SDS011;4943;52.550;13.462;2022-09-09T01:31:36;10.07;;;5.80;;
9807;SDS011;4943;52.550;13.462;2022-09-09T01:34:10;7.05;;;5.60;;
9807;SDS011;4943;52.550;13.462;2022-09-09T01:36:40;6.45;;;5.75;;
9807;SDS011;4943;52.550;13.462;2022-09-09T01:39:11;6.97;;;5.70;;
9807;SDS011;4943;52.550;13.462;2022-09-09T01:41:41;8.02;;;6.30;;
9807;SDS011;4943;52.550;13.462;2022-09-09T01:44:10;6.53;;;5.88;;
9807;SDS011;4943;52.550;13.462;2022-09-09T01:46:39;6.53;;;5.68;;
9807;SDS011;4943;52.550;13.462;2022-09-09T01:49:07;8.35;;;5.45;;
9807;SDS011;4943;52.550;13.462;2022-09-09T01:51:36;8.25;;;5.80;;
9807;SDS011;4943;52.550;13.462;2022-09-09T01:54:06;7.25;;;5.20;;
9807;SDS011;4943;52.550;13.462;2022-09-09T01:56:37;6.57;;;5.53;;
9807;SDS011;4943;52.550;13.462;2022-09-09T01:59:20;7.13;;;5.53;;
9807;SDS011;4943;52.550;13.462;2022-09-09T02:02:05;6.80;;;5.55;;
9807;SDS011;4943;52.550;13.462;2022-09-09T02:04:38;6.53;;;5.18;;
9807;SDS011;4943;52.550;13.462;2022-09-09T02:07:10;6.25;;;5.65;;
9807;SDS011;4943;52.550;13.462;2022-09-09T02:09:49;7.53;;;5.13;;
9807;SDS011;4943;52.550;13.462;2022-09-09T02:12:27;6.22;;;5.32;;
9807;SDS011;4943;52.550;13.462;2022-09-09T02:15:00;7.47;;;5.53;;
9807;SDS011;4943;52.550;13.462;2022-09-09T02:17:33;6.85;;;5.50;;
9807;SDS011;4943;52.550;13.462;2022-09-09T02:20:04;9.20;;;6.35;;
9807;SDS011;4943;52.550;13.462;2022-09-09T02:22:35;7.85;;;6.15;;
9807;SDS011;4943;52.550;13.462;2022-09-09T02:25:06;5.63;;;5.03;;
9807;SDS011;4943;52.550;13.462;2022-09-09T02:27:39;8.30;;;5.10;;
9807;SDS011;4943;52.550;13.462;2022-09-09T02:30:09;6.25;;;5.65;;
9807;SDS011;4943;52.550;13.462;2022-09-09T02:32:38;6.85;;;5.93;;
9807;SDS011;4943;52.550;13.462;2022-09-09T02:35:10;7.85;;;5.90;;
9807;SDS011;4943;52.550;13.462;2022-09-09T02:37:42;6.50;;;5.78;;
9807;SDS011;4943;52.550;13.462;2022-09-09T02:40:13;6.72;;;5.32;;
9807;SDS011;4943;52.550;13.462;2022-09-09T02:42:45;8.32;;;5.80;;
9807;SDS011;4943;52.550;13.462;2022-09-09T02:45:14;7.38;;;5.50;;
9807;SDS011;4943;52.550;13.462;2022-09-09T02:47:46;7.03;;;5.68;;
9807;SDS011;4943;52.550;13.462;2022-09-09T02:50:22;7.50;;;5.88;;
9807;SDS011;4943;52.550;13.462;2022-09-09T02:52:57;6.72;;;5.47;;
9807;SDS011;4943;52.550;13.462;2022-09-09T02:55:36;8.20;;;6.45;;
9807;SDS011;4943;52.550;13.462;2022-09-09T02:58:10;6.63;;;4.97;;
9807;SDS011;4943;52.550;13.462;2022-09-09T03:00:43;8.73;;;5.80;;
9807;SDS011;4943;52.550;13.462;2022-09-09T03:03:13;6.40;;;5.55;;
9807;SDS011;4943;52.550;13.462;2022-09-09T03:05:43;6.60;;;4.78;;
9807;SDS011;4943;52.550;13.462;2022-09-09T03:08:12;6.55;;;5.15;;
9807;SDS011;4943;52.550;13.462;2022-09-09T03:10:40;5.95;;;5.32;;
9807;SDS011;4943;52.550;13.462;2022-09-09T03:13:10;6.28;;;5.10;;
9807;SDS011;4943;52.550;13.462;2022-09-09T03:15:41;8.40;;;5.35;;
9807;SDS011;4943;52.550;13.462;2022-09-09T03:18:09;7.22;;;5.32;;
9807;SDS011;4943;52.550;13.462;2022-09-09T03:20:37;7.80;;;5.45;;
9807;SDS011;4943;52.550;13.462;2022-09-09T03:23:08;7.90;;;5.20;;
9807;SDS011;4943;52.550;13.462;2022-09-09T03:25:45;7.15;;;5.28;;
9807;SDS011;4943;52.550;13.462;2022-09-09T03:28:15;7.50;;;5.22;;
9807;SDS011;4943;52.550;13.462;2022-09-09T03:30:44;8.98;;;5.47;;
9807;SDS011;4943;52.550;13.462;2022-09-09T03:33:12;6.38;;;5.03;;
9807;SDS011;4943;52.550;13.462;2022-09-09T03:35:44;7.95;;;5.38;;
9807;SDS011;4943;52.550;13.462;2022-09-09T03:38:15;9.63;;;5.97;;
9807;SDS011;4943;52.550;13.462;2022-09-09T03:40:48;6.05;;;4.88;;
9807;SDS011;4943;52.550;13.462;2022-09-09T03:43:18;5.32;;;4.72;;
9807;SDS011;4943;52.550;13.462;2022-09-09T03:45:47;8.88;;;5.78;;
9807;SDS011;4943;52.550;13.462;2022-09-09T03:48:16;5.35;;;4.82;;
9807;SDS011;4943;52.550;13.462;2022-09-09T03:50:45;6.05;;;5.28;;
9807;SDS011;4943;52.550;13.462;2022-09-09T03:53:14;6.82;;;5.50;;
9807;SDS011;4943;52.550;13.462;2022-09-09T03:55:44;6.97;;;5.85;;
9807;SDS011;4943;52.550;13.462;2022-09-09T03:58:12;5.90;;;5.30;;
9807;SDS011;4943;52.550;13.462;2022-09-09T04:00:42;6.60;;;5.30;;
9807;SDS011;4943;52.550;13.462;2022-09-09T04:03:11;10.20;;;5.32;;
9807;SDS011;4943;52.550;13.462;2022-09-09T04:05:40;5.60;;;4.93;;
9807;SDS011;4943;52.550;13.462;2022-09-09T04:08:08;10.50;;;6.28;;
9807;SDS011;4943;52.550;13.462;2022-09-09T04:10:37;7.90;;;6.83;;
9807;SDS011;4943;52.550;13.462;2022-09-09T04:13:05;7.10;;;5.63;;
9807;SDS011;4943;52.550;13.462;2022-09-09T04:15:33;5.90;;;5.00;;
9807;SDS011;4943;52.550;13.462;2022-09-09T04:18:04;12.75;;;7.68;;
9807;SDS011;4943;52.550;13.462;2022-09-09T04:20:32;9.00;;;5.38;;
9807;SDS011;4943;52.550;13.462;2022-09-09T04:23:00;7.93;;;5.55;;
9807;SDS011;4943;52.550;13.462;2022-09-09T04:25:29;8.73;;;6.10;;
9807;SDS011;4943;52.550;13.462;2022-09-09T04:27:57;5.72;;;5.15;;
9807;SDS011;4943;52.550;13.462;2022-09-09T04:30:25;6.90;;;5.20;;
9807;SDS011;4943;52.550;13.462;2022-09-09T04:32:54;9.57;;;5.40;;
9807;SDS011;4943;52.550;13.462;2022-09-09T04:35:25;7.20;;;5.47;;
9807;SDS011;4943;52.550;13.462;2022-09-09T04:37:53;9.77;;;5.03;;
9807;SDS011;4943;52.550;13.462;2022-09-09T04:40:21;7.00;;;4.50;;
9807;SDS011;4943;52.550;13.462;2022-09-09T04:42:49;6.57;;;5.20;;
9807;SDS011;4943;52.550;13.462;2022-09-09T04:45:17;8.75;;;4.43;;
9807;SDS011;4943;52.550;13.462;2022-09-09T04:47:45;7.68;;;4.65;;
9807;SDS011;4943;52.550;13.462;2022-09-09T04:50:14;6.93;;;4.63;;
9807;SDS011;4943;52.550;13.462;2022-09-09T04:52:44;6.70;;;4.93;;
9807;SDS011;4943;52.550;13.462;2022-09-09T04:55:12;7.57;;;5.35;;
9807;SDS011;4943;52.550;13.462;2022-09-09T04:57:40;8.60;;;5.55;;
9807;SDS011;4943;52.550;13.462;2022-09-09T05:00:09;5.53;;;4.10;;
9807;SDS011;4943;52.550;13.462;2022-09-09T05:02:39;6.25;;;4.45;;
9807;SDS011;4943;52.550;13.462;2022-09-09T05:05:08;6.70;;;4.63;;
9807;SDS011;4943;52.550;13.462;2022-09-09T05:07:37;9.18;;;4.78;;
9807;SDS011;4943;52.550;13.462;2022-09-09T05:10:07;6.18;;;4.38;;
9807;SDS011;4943;52.550;13.462;2022-09-09T05:12:36;7.80;;;4.75;;
9807;SDS011;4943;52.550;13.462;2022-09-09T05:15:04;5.65;;;4.63;;
9807;SDS011;4943;52.550;13.462;2022-09-09T05:17:33;8.40;;;4.75;;
9807;SDS011;4943;52.550;13.462;2022-09-09T05:20:01;7.10;;;5.63;;
9807;SDS011;4943;52.550;13.462;2022-09-09T05:22:35;6.93;;;4.30;;
9807;SDS011;4943;52.550;13.462;2022-09-09T05:25:03;5.45;;;4.68;;
9807;SDS011;4943;52.550;13.462;2022-09-09T05:27:34;8.25;;;6.07;;
9807;SDS011;4943;52.550;13.462;2022-09-09T05:30:03;8.45;;;4.38;;
9807;SDS011;4943;52.550;13.462;2022-09-09T05:32:31;4.97;;;4.50;;
9807;SDS011;4943;52.550;13.462;2022-09-09T05:35:00;7.40;;;4.82;;
9807;SDS011;4943;52.550;13.462;2022-09-09T05:37:28;10.38;;;5.07;;
9807;SDS011;4943;52.550;13.462;2022-09-09T05:39:58;12.48;;;5.18;;
9807;SDS011;4943;52.550;13.462;2022-09-09T05:42:29;8.80;;;4.63;;
9807;SDS011;4943;52.550;13.462;2022-09-09T05:45:00;12.75;;;5.05;;
9807;SDS011;4943;52.550;13.462;2022-09-09T05:47:28;6.82;;;4.55;;
9807;SDS011;4943;52.550;13.462;2022-09-09T05:49:56;7.75;;;4.70;;
9807;SDS011;4943;52.550;13.462;2022-09-09T05:52:24;8.35;;;4.93;;
9807;SDS011;4943;52.550;13.462;2022-09-09T05:54:53;4.93;;;4.03;;
9807;SDS011;4943;52.550;13.462;2022-09-09T05:57:23;5.57;;;4.20;;
9807;SDS011;4943;52.550;13.462;2022-09-09T05:59:51;5.93;;;4.55;;
9807;SDS011;4943;52.550;13.462;2022-09-09T06:02:21;8.68;;;4.45;;
9807;SDS011;4943;52.550;13.462;2022-09-09T06:04:49;5.80;;;3.97;;
9807;SDS011;4943;52.550;13.462;2022-09-09T06:07:17;5.88;;;4.20;;
9807;SDS011;4943;52.550;13.462;2022-09-09T06:09:46;6.43;;;4.80;;
9807;SDS011;4943;52.550;13.462;2022-09-09T06:12:14;7.93;;;4.43;;
9807;SDS011;4943;52.550;13.462;2022-09-09T06:14:42;5.70;;;4.15;;
9807;SDS011;4943;52.550;13.462;2022-09-09T06:17:11;5.25;;;3.90;;
9807;SDS011;4943;52.550;13.462;2022-09-09T06:19:41;5.30;;;3.35;;
9807;SDS011;4943;52.550;13.462;2022-09-09T06:22:09;5.35;;;4.18;;
9807;SDS011;4943;52.550;13.462;2022-09-09T06:24:38;6.78;;;3.90;;
9807;SDS011;4943;52.550;13.462;2022-09-09T06:27:06;5.82;;;3.30;;
9807;SDS011;4943;52.550;13.462;2022-09-09T06:29:34;7.13;;;3.92;;
9807;SDS011;4943;52.550;13.462;2022-09-09T06:32:02;5.20;;;3.45;;
9807;SDS011;4943;52.550;13.462;2022-09-09T06:34:30;6.15;;;3.50;;
9807;SDS011;4943;52.550;13.462;2022-09-09T06:37:00;7.75;;;4.18;;
9807;SDS011;4943;52.550;13.462;2022-09-09T06:39:28;5.85;;;3.75;;
9807;SDS011;4943;52.550;13.462;2022-09-09T06:41:56;9.02;;;3.70;;
9807;SDS011;4943;52.550;13.462;2022-09-09T06:44:25;6.03;;;3.25;;
9807;SDS011;4943;52.550;13.462;2022-09-09T06:46:59;5.32;;;3.78;;
9807;SDS011;4943;52.550;13.462;2022-09-09T06:49:28;7.80;;;4.22;;
9807;SDS011;4943;52.550;13.462;2022-09-09T06:51:56;3.80;;;3.00;;
9807;SDS011;4943;52.550;13.462;2022-09-09T06:54:25;13.15;;;5.78;;
9807;SDS011;4943;52.550;13.462;2022-09-09T06:56:54;7.57;;;4.20;;
9807;SDS011;4943;52.550;13.462;2022-09-09T06:59:22;9.88;;;4.30;;
9807;SDS011;4943;52.550;13.462;2022-09-09T07:01:50;9.43;;;4.00;;
9807;SDS011;4943;52.550;13.462;2022-09-09T07:04:21;10.57;;;6.72;;
9807;SDS011;4943;52.550;13.462;2022-09-09T07:06:49;8.50;;;3.90;;
9807;SDS011;4943;52.550;13.462;2022-09-09T07:09:18;10.38;;;4.18;;
9807;SDS011;4943;52.550;13.462;2022-09-09T07:11:49;5.55;;;4.00;;
9807;SDS011;4943;52.550;13.462;2022-09-09T07:14:19;4.25;;;3.17;;
9807;SDS011;4943;52.550;13.462;2022-09-09T07:16:48;6.90;;;3.85;;
9807;SDS011;4943;52.550;13.462;2022-09-09T07:19:16;4.30;;;2.03;;
9807;SDS011;4943;52.550;13.462;2022-09-09T07:21:44;2.75;;;2.22;;
9807;SDS011;4943;52.550;13.462;2022-09-09T07:24:12;7.00;;;3.00;;
9807;SDS011;4943;52.550;13.462;2022-09-09T07:26:41;6.35;;;2.72;;
9807;SDS011;4943;52.550;13.462;2022-09-09T07:29:11;6.45;;;2.88;;
9807;SDS011;4943;52.550;13.462;2022-09-09T07:31:45;3.58;;;2.28;;
9807;SDS011;4943;52.550;13.462;2022-09-09T07:34:14;5.50;;;2.55;;
9807;SDS011;4943;52.550;13.462;2022-09-09T07:36:43;4.63;;;2.35;;
9807;SDS011;4943;52.550;13.462;2022-09-09T07:39:12;7.35;;;2.47;;
9807;SDS011;4943;52.550;13.462;2022-09-09T07:41:42;5.18;;;2.38;;
9807;SDS011;4943;52.550;13.462;2022-09-09T07:44:13;12.77;;;2.45;;
9807;SDS011;4943;52.550;13.462;2022-09-09T07:46:43;3.25;;;2.35;;
9807;SDS011;4943;52.550;13.462;2022-09-09T07:49:12;3.00;;;2.28;;
9807;SDS011;4943;52.550;13.462;2022-09-09T07:51:41;3.10;;;2.00;;
9807;SDS011;4943;52.550;13.462;2022-09-09T07:54:12;3.00;;;2.10;;
9807;SDS011;4943;52.550;13.462;2022-09-09T07:56:41;3.85;;;2.20;;
9807;SDS011;4943;52.550;13.462;2022-09-09T07:59:09;9.43;;;3.15;;
9807;SDS011;4943;52.550;13.462;2022-09-09T08:01:40;3.47;;;2.20;;
9807;SDS011;4943;52.550;13.462;2022-09-09T08:04:10;4.85;;;2.35;;
9807;SDS011;4943;52.550;13.462;2022-09-09T08:06:42;4.30;;;2.20;;
9807;SDS011;4943;52.550;13.462;2022-09-09T08:09:13;5.18;;;2.42;;
9807;SDS011;4943;52.550;13.462;2022-09-09T08:11:41;3.47;;;2.10;;
9807;SDS011;4943;52.550;13.462;2022-09-09T08:14:11;6.55;;;2.33;;
9807;SDS011;4943;52.550;13.462;2022-09-09T08:16:41;3.92;;;2.30;;
9807;SDS011;4943;52.550;13.462;2022-09-09T08:19:11;6.43;;;2.58;;
9807;SDS011;4943;52.550;13.462;2022-09-09T08:21:42;5.32;;;3.17;;
9807;SDS011;4943;52.550;13.462;2022-09-09T08:24:11;2.55;;;1.92;;
9807;SDS011;4943;52.550;13.462;2022-09-09T08:26:41;3.38;;;2.00;;
9807;SDS011;4943;52.550;13.462;2022-09-09T08:29:12;3.53;;;1.92;;
9807;SDS011;4943;52.550;13.462;2022-09-09T08:31:43;4.13;;;2.17;;
9807;SDS011;4943;52.550;13.462;2022-09-09T08:34:13;3.67;;;1.98;;
9807;SDS011;4943;52.550;13.462;2022-09-09T08:36:42;6.93;;;2.63;;
9807;SDS011;4943;52.550;13.462;2022-09-09T08:39:11;3.22;;;2.08;;
9807;SDS011;4943;52.550;13.462;2022-09-09T08:41:44;3.30;;;1.98;;
9807;SDS011;4943;52.550;13.462;2022-09-09T08:44:31;4.97;;;2.33;;
9807;SDS011;4943;52.550;13.462;2022-09-09T08:47:17;5.82;;;1.85;;
9807;SDS011;4943;52.550;13.462;2022-09-09T08:50:02;5.47;;;2.33;;
9807;SDS011;4943;52.550;13.462;2022-09-09T08:52:42;4.82;;;2.03;;
9807;SDS011;4943;52.550;13.462;2022-09-09T08:55:22;3.75;;;2.15;;
9807;SDS011;4943;52.550;13.462;2022-09-09T08:57:55;6.35;;;2.00;;
9807;SDS011;4943;52.550;13.462;2022-09-09T09:00:28;5.88;;;2.00;;
9807;SDS011;4943;52.550;13.462;2022-09-09T09:03:05;3.85;;;2.17;;
9807;SDS011;4943;52.550;13.462;2022-09-09T09:05:42;2.42;;;2.22;;
9807;SDS011;4943;52.550;13.462;2022-09-09T09:08:20;3.83;;;2.22;;
9807;SDS011;4943;52.550;13.462;2022-09-09T09:10:56;5.40;;;2.15;;
9807;SDS011;4943;52.550;13.462;2022-09-09T09:13:27;8.38;;;2.63;;
9807;SDS011;4943;52.550;13.462;2022-09-09T09:16:11;3.47;;;2.30;;
9807;SDS011;4943;52.550;13.462;2022-09-09T09:18:48;11.65;;;2.88;;
9807;SDS011;4943;52.550;13.462;2022-09-09T09:21:18;2.33;;;2.00;;
9807;SDS011;4943;52.550;13.462;2022-09-09T09:23:55;9.23;;;2.22;;
9807;SDS011;4943;52.550;13.462;2022-09-09T09:26:25;5.03;;;3.95;;
9807;SDS011;4943;52.550;13.462;2022-09-09T09:28:59;3.45;;;2.17;;
9807;SDS011;4943;52.550;13.462;2022-09-09T09:31:35;6.68;;;2.25;;
9807;SDS011;4943;52.550;13.462;2022-09-09T09:34:05;3.50;;;2.00;;
9807;SDS011;4943;52.550;13.462;2022-09-09T09:36:38;3.17;;;2.08;;
9807;SDS011;4943;52.550;13.462;2022-09-09T09:39:10;8.75;;;3.45;;
9807;SDS011;4943;52.550;13.462;2022-09-09T09:42:10;7.68;;;1.95;;
9807;SDS011;4943;52.550;13.462;2022-09-09T09:44:44;2.88;;;1.50;;
9807;SDS011;4943;52.550;13.462;2022-09-09T09:47:13;7.65;;;1.92;;
9807;SDS011;4943;52.550;13.462;2022-09-09T09:49:52;4.20;;;2.22;;
9807;SDS011;4943;52.550;13.462;2022-09-09T09:52:22;2.28;;;2.00;;
9807;SDS011;4943;52.550;13.462;2022-09-09T09:54:51;6.43;;;2.10;;
9807;SDS011;4943;52.550;13.462;2022-09-09T09:57:22;3.30;;;2.00;;
9807;SDS011;4943;52.550;13.462;2022-09-09T10:00:00;3.05;;;2.45;;
9807;SDS011;4943;52.550;13.462;2022-09-09T10:02:36;2.72;;;1.60;;
9807;SDS011;4943;52.550;13.462;2022-09-09T10:05:12;3.95;;;2.10;;
9807;SDS011;4943;52.550;13.462;2022-09-09T10:07:42;5.55;;;1.85;;
9807;SDS011;4943;52.550;13.462;2022-09-09T10:10:13;3.53;;;1.88;;
9807;SDS011;4943;52.550;13.462;2022-09-09T10:12:49;4.05;;;2.88;;
9807;SDS011;4943;52.550;13.462;2022-09-09T10:15:32;2.63;;;1.88;;
9807;SDS011;4943;52.550;13.462;2022-09-09T10:18:15;7.75;;;4.35;;
9807;SDS011;4943;52.550;13.462;2022-09-09T10:20:55;3.47;;;1.77;;
9807;SDS011;4943;52.550;13.462;2022-09-09T10:23:34;5.05;;;2.33;;
9807;SDS011;4943;52.550;13.462;2022-09-09T10:26:17;7.07;;;2.90;;
9807;SDS011;4943;52.550;13.462;2022-09-09T10:29:06;3.58;;;2.35;;
9807;SDS011;4943;52.550;13.462;2022-09-09T10:31:49;5.80;;;2.88;;
9807;SDS011;4943;52.550;13.462;2022-09-09T10:34:41;6.82;;;1.95;;
9807;SDS011;4943;52.550;13.462;2022-09-09T10:37:27;5.90;;;2.65;;
9807;SDS011;4943;52.550;13.462;2022-09-09T10:40:20;2.55;;;1.80;;
9807;SDS011;4943;52.550;13.462;2022-09-09T10:42:58;5.65;;;1.75;;
9807;SDS011;4943;52.550;13.462;2022-09-09T10:45:33;5.22;;;2.15;;
9807;SDS011;4943;52.550;13.462;2022-09-09T10:48:11;5.68;;;2.30;;
9807;SDS011;4943;52.550;13.462;2022-09-09T10:50:50;4.07;;;1.80;;
9807;SDS011;4943;52.550;13.462;2022-09-09T10:53:34;5.75;;;1.77;;
9807;SDS011;4943;52.550;13.462;2022-09-09T10:56:06;2.65;;;1.88;;
9807;SDS011;4943;52.550;13.462;2022-09-09T10:58:36;5.93;;;2.85;;
9807;SDS011;4943;52.550;13.462;2022-09-09T11:01:11;6.25;;;2.20;;
9807;SDS011;4943;52.550;13.462;2022-09-09T11:03:44;3.55;;;1.80;;
9807;SDS011;4943;52.550;13.462;2022-09-09T11:06:19;3.65;;;1.60;;
9807;SDS011;4943;52.550;13.462;2022-09-09T11:08:52;3.42;;;1.75;;
9807;SDS011;4943;52.550;13.462;2022-09-09T11:11:25;3.22;;;1.95;;
9807;SDS011;4943;52.550;13.462;2022-09-09T11:13:58;6.22;;;2.05;;
9807;SDS011;4943;52.550;13.462;2022-09-09T11:16:30;14.20;;;4.63;;
9807;SDS011;4943;52.550;13.462;2022-09-09T11:19:12;2.63;;;1.95;;
9807;SDS011;4943;52.550;13.462;2022-09-09T11:21:48;6.40;;;2.28;;
9807;SDS011;4943;52.550;13.462;2022-09-09T11:24:20;5.03;;;2.80;;
9807;SDS011;4943;52.550;13.462;2022-09-09T11:26:53;2.25;;;1.30;;
9807;SDS011;4943;52.550;13.462;2022-09-09T11:29:31;8.63;;;2.38;;
9807;SDS011;4943;52.550;13.462;2022-09-09T11:32:29;3.05;;;1.55;;
9807;SDS011;4943;52.550;13.462;2022-09-09T11:35:21;3.78;;;2.10;;
9807;SDS011;4943;52.550;13.462;2022-09-09T11:38:09;6.72;;;1.70;;
9807;SDS011;4943;52.550;13.462;2022-09-09T11:40:48;4.97;;;1.60;;
9807;SDS011;4943;52.550;13.462;2022-09-09T11:43:24;2.08;;;1.50;;
9807;SDS011;4943;52.550;13.462;2022-09-09T11:45:56;2.13;;;1.30;;
9807;SDS011;4943;52.550;13.462;2022-09-09T11:48:29;1.92;;;1.55;;
9807;SDS011;4943;52.550;13.462;2022-09-09T11:51:03;5.53;;;1.60;;
9807;SDS011;4943;52.550;13.462;2022-09-09T11:53:47;8.35;;;2.45;;
9807;SDS011;4943;52.550;13.462;2022-09-09T11:56:28;10.98;;;6.80;;
9807;SDS011;4943;52.550;13.462;2022-09-09T11:58:59;2.80;;;2.33;;
9807;SDS011;4943;52.550;13.462;2022-09-09T12:01:33;5.78;;;2.20;;
9807;SDS011;4943;52.550;13.462;2022-09-09T12:04:11;3.97;;;1.70;;
9807;SDS011;4943;52.550;13.462;2022-09-09T12:06:49;2.00;;;1.60;;
9807;SDS011;4943;52.550;13.462;2022-09-09T12:09:22;4.10;;;2.10;;
9807;SDS011;4943;52.550;13.462;2022-09-09T12:12:05;3.33;;;2.65;;
9807;SDS011;4943;52.550;13.462;2022-09-09T12:14:35;3.75;;;1.80;;
9807;SDS011;4943;52.550;13.462;2022-09-09T12:17:09;3.10;;;1.23;;
9807;SDS011;4943;52.550;13.462;2022-09-09T12:19:46;5.63;;;2.95;;
9807;SDS011;4943;52.550;13.462;2022-09-09T12:22:16;10.00;;;4.20;;
9807;SDS011;4943;52.550;13.462;2022-09-09T12:24:54;4.53;;;2.60;;
9807;SDS011;4943;52.550;13.462;2022-09-09T12:27:33;5.38;;;2.42;;
9807;SDS011;4943;52.550;13.462;2022-09-09T12:30:08;3.97;;;1.90;;
9807;SDS011;4943;52.550;13.462;2022-09-09T12:32:38;2.20;;;1.80;;
9807;SDS011;4943;52.550;13.462;2022-09-09T12:35:09;4.55;;;1.65;;
9807;SDS011;4943;52.550;13.462;2022-09-09T12:37:40;2.47;;;1.52;;
9807;SDS011;4943;52.550;13.462;2022-09-09T12:40:18;4.97;;;1.70;;
9807;SDS011;4943;52.550;13.462;2022-09-09T12:42:50;3.22;;;1.95;;
9807;SDS011;4943;52.550;13.462;2022-09-09T12:45:19;1.98;;;1.48;;
9807;SDS011;4943;52.550;13.462;2022-09-09T12:47:49;5.68;;;2.75;;
9807;SDS011;4943;52.550;13.462;2022-09-09T12:50:21;4.70;;;2.17;;
9807;SDS011;4943;52.550;13.462;2022-09-09T12:52:52;4.00;;;2.13;;
9807;SDS011;4943;52.550;13.462;2022-09-09T12:55:23;3.65;;;1.27;;
9807;SDS011;4943;52.550;13.462;2022-09-09T12:57:57;4.95;;;1.90;;
9807;SDS011;4943;52.550;13.462;2022-09-09T13:00:26;3.38;;;1.70;;
9807;SDS011;4943;52.550;13.462;2022-09-09T13:02:57;9.15;;;1.77;;
9807;SDS011;4943;52.550;13.462;2022-09-09T13:05:27;2.55;;;1.67;;
9807;SDS011;4943;52.550;13.462;2022-09-09T13:08:01;11.25;;;3.08;;
9807;SDS011;4943;52.550;13.462;2022-09-09T13:10:31;4.82;;;1.90;;
9807;SDS011;4943;52.550;13.462;2022-09-09T13:13:22;3.92;;;1.42;;
9807;SDS011;4943;52.550;13.462;2022-09-09T13:15:54;3.92;;;1.65;;
9807;SDS011;4943;52.550;13.462;2022-09-09T13:18:24;9.15;;;2.80;;
9807;SDS011;4943;52.550;13.462;2022-09-09T13:20:55;2.17;;;1.48;;
9807;SDS011;4943;52.550;13.462;2022-09-09T13:23:26;2.20;;;1.45;;
9807;SDS011;4943;52.550;13.462;2022-09-09T13:25:56;5.03;;;1.33;;
9807;SDS011;4943;52.550;13.462;2022-09-09T13:28:27;3.70;;;1.40;;
9807;SDS011;4943;52.550;13.462;2022-09-09T13:31:00;2.03;;;1.13;;
9807;SDS011;4943;52.550;13.462;2022-09-09T13:33:30;2.17;;;1.33;;
9807;SDS011;4943;52.550;13.462;2022-09-09T13:36:01;5.30;;;1.75;;
9807;SDS011;4943;52.550;13.462;2022-09-09T13:38:32;3.33;;;1.60;;
9807;SDS011;4943;52.550;13.462;2022-09-09T13:41:03;5.57;;;2.03;;
9807;SDS011;4943;52.550;13.462;2022-09-09T13:43:36;4.28;;;1.50;;
9807;SDS011;4943;52.550;13.462;2022-09-09T13:46:20;1.88;;;1.33;;
9807;SDS011;4943;52.550;13.462;2022-09-09T13:48:54;1.63;;;1.23;;
9807;SDS011;4943;52.550;13.462;2022-09-09T13:51:26;4.70;;;3.13;;
9807;SDS011;4943;52.550;13.462;2022-09-09T13:54:04;3.35;;;1.40;;
9807;SDS011;4943;52.550;13.462;2022-09-09T13:56:34;2.17;;;1.40;;
9807;SDS011;4943;52.550;13.462;2022-09-09T13:59:04;3.28;;;1.67;;
9807;SDS011;4943;52.550;13.462;2022-09-09T14:01:36;7.15;;;1.23;;
9807;SDS011;4943;52.550;13.462;2022-09-09T14:04:04;6.55;;;1.40;;
9807;SDS011;4943;52.550;13.462;2022-09-09T14:06:33;4.05;;;1.15;;
9807;SDS011;4943;52.550;13.462;2022-09-09T14:09:03;3.33;;;1.00;;
9807;SDS011;4943;52.550;13.462;2022-09-09T14:11:31;4.43;;;1.42;;
9807;SDS011;4943;52.550;13.462;2022-09-09T14:13:59;2.13;;;1.27;;
9807;SDS011;4943;52.550;13.462;2022-09-09T14:16:29;2.40;;;0.82;;
9807;SDS011;4943;52.550;13.462;2022-09-09T14:18:57;1.35;;;1.02;;
9807;SDS011;4943;52.550;13.462;2022-09-09T14:21:25;3.17;;;1.02;;
9807;SDS011;4943;52.550;13.462;2022-09-09T14:23:54;1.45;;;1.08;;
9807;SDS011;4943;52.550;13.462;2022-09-09T14:26:24;3.75;;;1.70;;
9807;SDS011;4943;52.550;13.462;2022-09-09T14:28:52;2.40;;;1.38;;
9807;SDS011;4943;52.550;13.462;2022-09-09T14:31:21;1.48;;;1.38;;
9807;SDS011;4943;52.550;13.462;2022-09-09T14:33:51;2.25;;;1.42;;
9807;SDS011;4943;52.550;13.462;2022-09-09T14:36:19;5.30;;;1.65;;
9807;SDS011;4943;52.550;13.462;2022-09-09T14:38:49;4.63;;;1.85;;
9807;SDS011;4943;52.550;13.462;2022-09-09T14:41:18;2.45;;;1.30;;
9807;SDS011;4943;52.550;13.462;2022-09-09T14:43:48;1.83;;;1.30;;
9807;SDS011;4943;52.550;13.462;2022-09-09T14:46:18;4.50;;;1.40;;
9807;SDS011;4943;52.550;13.462;2022-09-09T14:48:47;2.20;;;1.10;;
9807;SDS011;4943;52.550;13.462;2022-09-09T14:51:18;4.15;;;1.10;;
9807;SDS011;4943;52.550;13.462;2022-09-09T14:53:50;1.88;;;1.15;;
9807;SDS011;4943;52.550;13.462;2022-09-09T14:56:21;2.67;;;1.65;;
9807;SDS011;4943;52.550;13.462;2022-09-09T14:58:52;5.82;;;1.38;;
9807;SDS011;4943;52.550;13.462;2022-09-09T15:01:21;2.83;;;1.23;;
9807;SDS011;4943;52.550;13.462;2022-09-09T15:03:51;3.70;;;1.80;;
9807;SDS011;4943;52.550;13.462;2022-09-09T15:06:22;3.35;;;1.50;;
9807;SDS011;4943;52.550;13.462;2022-09-09T15:08:52;3.40;;;1.38;;
9807;SDS011;4943;52.550;13.462;2022-09-09T15:11:25;7.20;;;1.85;;
9807;SDS011;4943;52.550;13.462;2022-09-09T15:13:54;4.70;;;1.20;;
9807;SDS011;4943;52.550;13.462;2022-09-09T15:16:24;3.47;;;1.63;;
9807;SDS011;4943;52.550;13.462;2022-09-09T15:18:54;6.10;;;1.77;;
9807;SDS011;4943;52.550;13.462;2022-09-09T15:21:26;4.22;;;1.48;;
9807;SDS011;4943;52.550;13.462;2022-09-09T15:23:55;5.53;;;1.67;;
9807;SDS011;4943;52.550;13.462;2022-09-09T15:26:24;5.88;;;1.52;;
9807;SDS011;4943;52.550;13.462;2022-09-09T15:28:53;1.23;;;1.13;;
9807;SDS011;4943;52.550;13.462;2022-09-09T15:31:22;2.10;;;1.00;;